PAIL

Iliamna Airport

Iliamna, Alaska, USA
PAIL 190526Z 1906/2006 03007KT P6SM SCT045 FM190900 01007KT P6SM -RA SCT025 BKN035 FM191300 31008KT P6SM BKN100 FM192100 29012G20KT P6SM OVC050
Issued Valid From Valid To
Oct-19 @ 05:26 UTC
(4 hours ago)
Oct-19 @ 06:00 UTC
(4 hours ago)
Oct-20 @ 06:00 UTC
(in 20 hours)
Expired Click to View Oct-19 @ 06:00 to Oct-19 @ 09:00
PAIL 190526Z 1906/2006 03007KT P6SM SCT045
Wind Visibility Clouds
30° at 7 knots Greater than 6 miles
  • Scattered at 4,500' AGL
From Oct-19 @ 09:00 to Oct-19 @ 13:00
FM190900 01007KT P6SM -RA SCT025 BKN035
Wind Visibility Clouds Conditions
10° at 7 knots Greater than 6 miles
  • Scattered at 2,500' AGL
  • Broken at 3,500' AGL
  • Light Rain
From Oct-19 @ 13:00 to Oct-19 @ 21:00
FM191300 31008KT P6SM BKN100
Wind Visibility Clouds
310° at 8 knots Greater than 6 miles
  • Broken at 10,000' AGL
From Oct-19 @ 21:00 to Oct-20 @ 06:00
FM192100 29012G20KT P6SM OVC050
Wind Visibility Clouds
290° at 12 knots
 Gusting to 20 knots
Greater than 6 miles
  • Overcast at 5,000' AGL
PAIL 190526Z 1906/2006 03007KT P6SM SCT045 FM190900 01007KT P6SM -RA SCT025 BKN035 FM191300 31008KT P6SM BKN100 FM192100 29012G20KT P6SM OVC050
Issued Oct-19 @ 05:26 UTC
(4 hours ago)
Valid From Oct-19 @ 06:00 UTC
(4 hours ago)
Valid To Oct-20 @ 06:00 UTC
(in 20 hours)
Oct-19 @ 06:00 - Oct-19 @ 09:00
Wind Visibility
30° at 7 knots Greater than 6 miles
Clouds
  • Scattered at 4,500' AGL
From Oct-19 @ 09:00 - Oct-19 @ 13:00
Wind Visibility
10° at 7 knots Greater than 6 miles
Clouds
  • Scattered at 2,500' AGL
  • Broken at 3,500' AGL
Conditions
  • Light Rain
From Oct-19 @ 13:00 - Oct-19 @ 21:00
Wind Visibility
310° at 8 knots Greater than 6 miles
Clouds
  • Broken at 10,000' AGL
From Oct-19 @ 21:00 - Oct-20 @ 06:00
Wind Visibility
290° at 12 knots
 Gusting to 20 knots
Greater than 6 miles
Clouds
  • Overcast at 5,000' AGL